Time;durP1;ratioP1;P1;durP2;ratioP2;P2;SDS_P1;SDS_P2;PMS_P1;PMS_P2;Temp;Humidity;BMP_temperature;BMP_pressure;BME280_temperature;BME280_humidity;BME280_pressure;Samples;Min_cycle;Max_cycle;Signal;HPM_P1;HPM_P2
2023/09/14 00:01:42;;;;;;;11.98;4.97;;;11.70;99.90;;;;;;5029677;28;20022;-57
2023/09/14 00:04:07;;;;;;;8.55;3.88;;;11.70;99.90;;;;;;5028380;28;20520;-56
2023/09/14 00:06:33;;;;;;;12.52;4.38;;;11.60;99.90;;;;;;5030169;28;20028;-57
2023/09/14 00:08:59;;;;;;;9.98;3.80;;;11.60;99.90;;;;;;5024408;28;20490;-56
2023/09/14 00:11:24;;;;;;;15.93;4.25;;;11.60;99.90;;;;;;5029051;28;20056;-56
2023/09/14 00:13:50;;;;;;;8.85;4.10;;;11.60;99.90;;;;;;5029573;28;20242;-56
2023/09/14 00:16:15;;;;;;;9.30;3.63;;;11.60;99.90;;;;;;5028424;28;20222;-56
2023/09/14 00:18:41;;;;;;;12.35;4.22;;;11.60;99.90;;;;;;5029584;28;20478;-56
2023/09/14 00:21:06;;;;;;;12.70;4.25;;;11.50;99.90;;;;;;5027640;28;20180;-56
2023/09/14 00:23:32;;;;;;;11.70;3.33;;;11.50;99.90;;;;;;5044692;28;20025;-56
2023/09/14 00:25:57;;;;;;;17.67;5.03;;;11.50;99.90;;;;;;5029402;28;20071;-56
2023/09/14 00:28:23;;;;;;;7.22;3.53;;;11.50;99.90;;;;;;5029237;28;20047;-56
2023/09/14 00:30:55;;;;;;;14.23;4.13;;;11.50;99.90;;;;;;5028840;28;20021;-56
2023/09/14 00:33:22;;;;;;;11.30;3.95;;;11.50;99.90;;;;;;5029646;28;20414;-56
2023/09/14 00:35:48;;;;;;;12.63;4.60;;;11.50;99.90;;;;;;5029422;28;20025;-56
2023/09/14 00:38:14;;;;;;;10.18;3.20;;;11.50;99.90;;;;;;5026750;28;20037;-56
2023/09/14 00:40:39;;;;;;;11.90;3.22;;;11.50;99.90;;;;;;5025663;28;20395;-56
2023/09/14 00:43:05;;;;;;;6.50;3.78;;;11.50;99.90;;;;;;5023558;28;20025;-56
2023/09/14 00:45:32;;;;;;;9.10;3.50;;;11.50;99.90;;;;;;5026772;28;20454;-56
2023/09/14 00:47:59;;;;;;;10.43;3.53;;;11.50;99.90;;;;;;5029236;28;20112;-56
2023/09/14 00:50:26;;;;;;;9.48;3.85;;;11.50;99.90;;;;;;5027371;28;20414;-56
2023/09/14 00:53:00;;;;;;;5.70;2.97;;;11.50;99.90;;;;;;5028005;28;20104;-56
2023/09/14 00:55:27;;;;;;;10.10;2.95;;;11.50;99.90;;;;;;5029648;28;20152;-57
2023/09/14 00:57:53;;;;;;;11.60;3.65;;;11.40;99.90;;;;;;5029322;28;20386;-56
2023/09/14 01:00:19;;;;;;;12.77;3.13;;;11.50;99.90;;;;;;5028693;28;20100;-56
2023/09/14 01:02:45;;;;;;;12.35;3.22;;;11.40;99.90;;;;;;5029014;28;20326;-57
2023/09/14 01:05:15;;;;;;;13.48;3.67;;;11.40;99.90;;;;;;5029868;28;20083;-56
2023/09/14 01:07:40;;;;;;;10.63;3.00;;;11.40;99.90;;;;;;5033094;28;20072;-57
2023/09/14 01:10:07;;;;;;;11.15;3.22;;;11.30;99.90;;;;;;5031029;28;20276;-57
2023/09/14 01:12:33;;;;;;;16.40;3.65;;;11.30;99.90;;;;;;5030771;28;20060;-56
2023/09/14 01:15:09;;;;;;;12.45;3.63;;;11.30;99.90;;;;;;5032707;28;20053;-57
2023/09/14 01:17:49;;;;;;;7.65;3.17;;;11.30;99.90;;;;;;5031523;28;20037;-57
2023/09/14 01:20:36;;;;;;;10.15;3.38;;;11.30;99.90;;;;;;5032424;28;20064;-56
2023/09/14 01:23:26;;;;;;;7.90;3.10;;;11.20;99.90;;;;;;5043875;28;20030;-56
2023/09/14 01:25:52;;;;;;;7.75;2.72;;;11.20;99.90;;;;;;5020806;28;20568;-57
2023/09/14 01:28:18;;;;;;;9.98;3.30;;;11.20;99.90;;;;;;5026122;28;20041;-57
2023/09/14 01:30:44;;;;;;;11.18;2.95;;;11.20;99.90;;;;;;5038668;28;20033;-57
2023/09/14 01:33:15;;;;;;;8.70;3.15;;;11.10;99.90;;;;;;5023250;28;20028;-57
2023/09/14 01:35:42;;;;;;;;;;;11.10;99.90;;;;;;5023499;28;20108;-56
2023/09/14 01:38:09;;;;;;;7.28;3.22;;;11.10;99.90;;;;;;5022162;28;20414;-57
2023/09/14 01:40:36;;;;;;;10.15;3.28;;;11.10;99.90;;;;;;5022095;28;20480;-57
2023/09/14 01:43:02;;;;;;;13.23;3.70;;;11.00;99.90;;;;;;5021401;28;20018;-56
2023/09/14 01:45:30;;;;;;;17.08;3.95;;;11.00;99.90;;;;;;5022150;28;20356;-58
2023/09/14 01:47:56;;;;;;;13.90;3.15;;;11.00;99.90;;;;;;5036596;28;20522;-56
2023/09/14 01:50:21;;;;;;;10.63;3.53;;;11.00;99.90;;;;;;5021140;28;20045;-56
2023/09/14 01:52:49;;;;;;;11.35;3.28;;;11.00;99.90;;;;;;5020507;28;20079;-56
2023/09/14 01:55:16;;;;;;;12.73;3.20;;;11.00;99.90;;;;;;5027266;28;20030;-56
2023/09/14 01:57:41;;;;;;;8.52;3.75;;;11.00;99.90;;;;;;5032082;28;20096;-57
2023/09/14 02:00:08;;;;;;;10.68;3.58;;;10.90;99.90;;;;;;5031675;28;20100;-56
2023/09/14 02:02:34;;;;;;;9.65;2.95;;;10.90;99.90;;;;;;5031878;28;20025;-56
2023/09/14 02:04:59;;;;;;;10.85;3.13;;;10.90;99.90;;;;;;5028650;28;20025;-56
2023/09/14 02:07:24;;;;;;;7.85;3.75;;;10.90;99.90;;;;;;5032048;28;20037;-56
2023/09/14 02:09:51;;;;;;;11.23;3.03;;;10.90;99.90;;;;;;5031602;28;20450;-56
2023/09/14 02:12:17;;;;;;;9.20;3.58;;;10.90;99.90;;;;;;5033817;28;20393;-56
2023/09/14 02:14:43;;;;;;;12.45;3.58;;;10.90;99.90;;;;;;5031657;28;20471;-56
2023/09/14 02:17:08;;;;;;;11.90;3.25;;;10.80;99.90;;;;;;5030796;28;20099;-56
2023/09/14 02:19:34;;;;;;;6.32;2.60;;;10.80;99.90;;;;;;5031389;28;20029;-56
2023/09/14 02:21:59;;;;;;;4.10;2.55;;;10.80;99.90;;;;;;5029849;28;20406;-56
2023/09/14 02:24:25;;;;;;;7.78;3.05;;;10.80;99.90;;;;;;5031978;28;20479;-56
2023/09/14 02:26:54;;;;;;;6.72;2.92;;;10.80;99.90;;;;;;5030328;28;20018;-56
2023/09/14 02:29:19;;;;;;;14.43;4.57;;;10.80;99.90;;;;;;5029994;28;20052;-56
2023/09/14 02:31:45;;;;;;;11.27;3.67;;;10.70;99.90;;;;;;5046392;28;20435;-56
2023/09/14 02:34:10;;;;;;;9.80;3.33;;;10.70;99.90;;;;;;5031442;28;20041;-56
2023/09/14 02:36:37;;;;;;;11.05;3.58;;;10.70;99.90;;;;;;5031292;28;20021;-56
2023/09/14 02:39:02;;;;;;;12.60;3.17;;;10.70;99.90;;;;;;5024563;28;20402;-56
2023/09/14 02:41:28;;;;;;;12.73;4.22;;;10.70;99.90;;;;;;5028014;28;20022;-56
2023/09/14 02:43:53;;;;;;;11.27;3.90;;;10.70;99.90;;;;;;5031303;28;20022;-56
2023/09/14 02:46:19;;;;;;;12.77;3.50;;;10.70;99.90;;;;;;5031764;28;20025;-56
2023/09/14 02:48:44;;;;;;;12.68;3.53;;;10.60;99.90;;;;;;5031222;28;20041;-57
2023/09/14 02:51:10;;;;;;;16.25;3.97;;;10.60;99.90;;;;;;5031202;28;20038;-56
2023/09/14 02:53:35;;;;;;;18.25;3.75;;;10.60;99.90;;;;;;5029695;28;20406;-56
2023/09/14 02:56:07;;;;;;;5.78;2.65;;;10.60;99.90;;;;;;5019453;28;20034;-56
2023/09/14 02:58:32;;;;;;;12.65;3.78;;;10.60;99.90;;;;;;5024789;28;20025;-57
2023/09/14 03:00:58;;;;;;;11.38;3.42;;;10.50;99.90;;;;;;5024589;28;20029;-56
2023/09/14 03:03:24;;;;;;;8.52;3.30;;;10.50;99.90;;;;;;5029645;28;20025;-56
2023/09/14 03:05:50;;;;;;;11.82;3.00;;;10.50;99.90;;;;;;5029700;28;20033;-56
2023/09/14 03:08:15;;;;;;;12.40;3.30;;;10.50;99.90;;;;;;5031186;28;20112;-56
2023/09/14 03:10:42;;;;;;;7.18;3.30;;;10.50;99.90;;;;;;5030233;28;20160;-56
2023/09/14 03:13:07;;;;;;;17.15;3.33;;;10.50;99.90;;;;;;5030587;28;20448;-56
2023/09/14 03:15:34;;;;;;;10.13;3.30;;;10.50;99.90;;;;;;5028177;28;20029;-56
2023/09/14 03:18:00;;;;;;;15.88;2.75;;;10.40;99.90;;;;;;5031238;28;20467;-56
2023/09/14 03:20:25;;;;;;;7.63;3.30;;;10.50;99.90;;;;;;5030172;28;20026;-56
2023/09/14 03:22:51;;;;;;;10.52;3.10;;;10.40;99.90;;;;;;5030566;28;20025;-56
2023/09/14 03:25:16;;;;;;;11.45;3.67;;;10.40;99.90;;;;;;5030583;28;20097;-56
2023/09/14 03:27:43;;;;;;;6.70;2.78;;;10.40;99.90;;;;;;5030289;28;20387;-56
2023/09/14 03:30:09;;;;;;;8.80;3.10;;;10.30;99.90;;;;;;5030114;28;20033;-56
2023/09/14 03:32:35;;;;;;;10.52;3.30;;;10.30;99.90;;;;;;5027870;28;20033;-56
2023/09/14 03:35:00;;;;;;;14.30;3.05;;;10.30;99.90;;;;;;5024644;28;20037;-56
2023/09/14 03:37:26;;;;;;;16.52;4.07;;;10.30;99.90;;;;;;5030512;28;20029;-56
2023/09/14 03:39:51;;;;;;;11.90;3.45;;;10.30;99.90;;;;;;5030301;28;20026;-56
2023/09/14 03:42:17;;;;;;;14.13;4.13;;;10.30;99.90;;;;;;5030615;28;20030;-56
2023/09/14 03:44:42;;;;;;;14.25;3.63;;;10.30;99.90;;;;;;5028756;28;20115;-56
2023/09/14 03:47:08;;;;;;;11.55;4.75;;;10.20;99.90;;;;;;5028868;28;20044;-56
2023/09/14 03:49:33;;;;;;;9.60;3.17;;;10.30;99.90;;;;;;5022602;28;20110;-56
2023/09/14 03:51:59;;;;;;;12.52;3.97;;;10.20;99.90;;;;;;5028306;28;20057;-56
2023/09/14 03:54:25;;;;;;;7.45;3.33;;;10.20;99.90;;;;;;5029850;28;20104;-56
2023/09/14 03:56:50;;;;;;;11.50;2.95;;;10.20;99.90;;;;;;5030361;28;20045;-56
2023/09/14 03:59:16;;;;;;;9.68;3.63;;;10.20;99.90;;;;;;5028744;28;20028;-55
2023/09/14 04:01:42;;;;;;;8.25;3.10;;;10.20;99.90;;;;;;5029528;28;20040;-55
2023/09/14 04:04:07;;;;;;;11.48;2.83;;;10.20;99.90;;;;;;5029907;28;20021;-56
2023/09/14 04:06:33;;;;;;;8.25;3.25;;;10.10;99.90;;;;;;5028157;28;20044;-56
2023/09/14 04:08:58;;;;;;;7.63;3.22;;;10.10;99.90;;;;;;5029790;28;20080;-56
2023/09/14 04:11:24;;;;;;;13.20;3.47;;;10.10;99.90;;;;;;5029050;28;20037;-56
2023/09/14 04:13:49;;;;;;;8.60;2.78;;;10.10;99.90;;;;;;5029660;28;20060;-56
2023/09/14 04:16:15;;;;;;;10.15;2.70;;;10.10;99.90;;;;;;5029682;28;20156;-56
2023/09/14 04:18:40;;;;;;;12.88;3.25;;;10.10;99.90;;;;;;5026256;28;20075;-56
2023/09/14 04:21:06;;;;;;;6.72;3.10;;;10.00;99.90;;;;;;5044242;28;20108;-55
2023/09/14 04:23:32;;;;;;;8.05;2.78;;;10.10;99.90;;;;;;5026833;28;20028;-56
2023/09/14 04:25:59;;;;;;;7.53;3.33;;;10.10;99.90;;;;;;5024120;28;20034;-56
2023/09/14 04:28:25;;;;;;;7.82;3.60;;;10.10;99.90;;;;;;5029357;28;20522;-57
2023/09/14 04:30:59;;;;;;;7.03;2.92;;;10.10;99.90;;;;;;5024610;28;20041;-57
2023/09/14 04:33:25;;;;;;;14.25;5.15;;;10.00;99.90;;;;;;5029964;28;20037;-57
2023/09/14 04:36:01;;;;;;;6.70;2.53;;;10.00;99.90;;;;;;5029777;28;20026;-57
2023/09/14 04:38:26;;;;;;;9.45;3.40;;;10.00;99.90;;;;;;5018939;28;20065;-57
2023/09/14 04:40:52;;;;;;;10.32;3.10;;;10.00;99.90;;;;;;5015907;28;20107;-57
2023/09/14 04:43:17;;;;;;;8.90;2.92;;;10.00;99.90;;;;;;5016413;28;20037;-56
2023/09/14 04:45:46;;;;;;;13.30;4.50;;;10.00;99.90;;;;;;5016273;28;20033;-56
2023/09/14 04:48:11;;;;;;;9.13;3.25;;;10.00;99.90;;;;;;5017202;28;20491;-56
2023/09/14 04:50:37;;;;;;;12.43;2.97;;;10.00;99.90;;;;;;5028402;28;20044;-56
2023/09/14 04:53:03;;;;;;;8.18;3.05;;;10.00;99.90;;;;;;5021303;28;20034;-56
2023/09/14 04:55:28;;;;;;;5.55;3.13;;;10.00;99.90;;;;;;5027425;28;20018;-56
2023/09/14 04:57:54;;;;;;;15.55;3.20;;;10.00;99.90;;;;;;5027330;28;20107;-56
2023/09/14 05:00:19;;;;;;;11.38;3.28;;;10.00;99.90;;;;;;5027258;28;20080;-56
2023/09/14 05:02:45;;;;;;;8.43;3.33;;;9.90;99.90;;;;;;5042526;28;20022;-56
2023/09/14 05:05:10;;;;;;;5.25;2.72;;;9.90;99.90;;;;;;5024341;28;20025;-56
2023/09/14 05:07:38;;;;;;;10.15;3.17;;;9.90;99.90;;;;;;5029053;28;20364;-56
2023/09/14 05:10:04;;;;;;;7.53;2.88;;;10.00;99.90;;;;;;5025642;28;20655;-56
2023/09/14 05:12:29;;;;;;;8.57;3.15;;;10.00;99.90;;;;;;5028900;28;20029;-56
2023/09/14 05:14:54;;;;;;;7.35;3.20;;;10.00;99.90;;;;;;5014615;28;20112;-56
2023/09/14 05:17:20;;;;;;;9.90;3.08;;;10.00;99.90;;;;;;5027640;28;20028;-56
2023/09/14 05:19:46;;;;;;;9.07;2.85;;;10.00;99.90;;;;;;5026831;28;20580;-56
2023/09/14 05:22:11;;;;;;;8.50;3.03;;;10.00;99.90;;;;;;5028853;28;20502;-56
2023/09/14 05:24:40;;;;;;;10.50;2.75;;;10.00;99.90;;;;;;5027338;28;20072;-56
2023/09/14 05:27:06;;;;;;;7.18;2.95;;;10.00;99.90;;;;;;5029033;28;20105;-56
2023/09/14 05:29:32;;;;;;;11.07;3.15;;;10.00;99.90;;;;;;5025345;28;20029;-56
2023/09/14 05:31:58;;;;;;;8.52;2.75;;;10.00;99.90;;;;;;5024284;28;20018;-57
2023/09/14 05:34:24;;;;;;;11.25;3.28;;;10.00;99.90;;;;;;5028765;28;20037;-56
2023/09/14 05:36:50;;;;;;;7.50;3.20;;;10.00;99.90;;;;;;5023028;28;20405;-56
2023/09/14 05:39:16;;;;;;;7.40;2.90;;;10.00;99.90;;;;;;5028576;28;20117;-56
2023/09/14 05:41:42;;;;;;;8.00;3.20;;;10.10;99.90;;;;;;5027112;28;20041;-56
2023/09/14 05:44:09;;;;;;;7.65;2.92;;;10.10;99.90;;;;;;5029084;28;20430;-56
2023/09/14 05:46:35;;;;;;;6.95;2.70;;;10.10;99.90;;;;;;5023649;28;20395;-56
2023/09/14 05:49:00;;;;;;;8.30;3.70;;;10.20;99.90;;;;;;5021557;28;20030;-56
2023/09/14 05:51:26;;;;;;;8.00;2.80;;;10.20;99.90;;;;;;5027983;28;20033;-56
2023/09/14 05:53:51;;;;;;;10.85;3.30;;;10.20;99.90;;;;;;5028290;28;20038;-56
2023/09/14 05:56:17;;;;;;;9.40;3.45;;;10.30;99.90;;;;;;5027900;28;20501;-56
2023/09/14 05:58:42;;;;;;;6.93;3.70;;;10.30;99.90;;;;;;5032035;28;20310;-56
2023/09/14 06:01:08;;;;;;;6.97;3.30;;;10.30;99.90;;;;;;5025611;28;20402;-56
2023/09/14 06:03:34;;;;;;;14.10;4.03;;;10.30;99.90;;;;;;5047332;28;20025;-56
2023/09/14 06:06:00;;;;;;;13.25;4.30;;;10.30;99.90;;;;;;5030045;28;20032;-56
2023/09/14 06:08:25;;;;;;;12.48;3.58;;;10.40;99.90;;;;;;5025052;28;20352;-56
2023/09/14 06:10:51;;;;;;;12.30;3.60;;;10.40;99.90;;;;;;5031560;28;20079;-56
2023/09/14 06:13:18;;;;;;;10.73;3.55;;;10.40;99.90;;;;;;5045614;28;20030;-56
2023/09/14 06:15:43;;;;;;;5.28;2.70;;;10.40;99.90;;;;;;5031759;28;20041;-56
2023/09/14 06:18:09;;;;;;;8.20;3.33;;;10.40;99.90;;;;;;5046714;28;20021;-56
2023/09/14 06:20:35;;;;;;;12.73;3.75;;;10.50;99.90;;;;;;5046651;28;20057;-56
2023/09/14 06:23:00;;;;;;;10.52;3.20;;;10.50;99.90;;;;;;5028752;28;20030;-56
2023/09/14 06:25:26;;;;;;;7.50;3.15;;;10.50;99.90;;;;;;5021586;28;20037;-56
2023/09/14 06:27:51;;;;;;;14.63;4.05;;;10.60;99.90;;;;;;5030495;28;20194;-57
2023/09/14 06:30:17;;;;;;;6.60;3.30;;;10.70;99.90;;;;;;5044375;28;20037;-57
2023/09/14 06:32:42;;;;;;;8.27;3.63;;;10.70;99.90;;;;;;5018691;28;20125;-56
2023/09/14 06:35:08;;;;;;;8.10;3.17;;;10.80;99.90;;;;;;5029818;28;20486;-56
2023/09/14 06:37:34;;;;;;;13.07;3.92;;;10.80;99.90;;;;;;5038911;28;20052;-56
2023/09/14 06:39:59;;;;;;;10.63;3.13;;;10.80;99.90;;;;;;5029069;28;20486;-56
2023/09/14 06:42:25;;;;;;;19.13;3.72;;;10.90;99.90;;;;;;5018453;28;20026;-56
2023/09/14 06:44:51;;;;;;;7.22;3.08;;;10.90;99.90;;;;;;5024868;28;20418;-56
2023/09/14 06:47:17;;;;;;;9.70;3.15;;;11.00;99.90;;;;;;5031557;28;20337;-56
2023/09/14 06:49:42;;;;;;;14.77;4.05;;;11.00;99.90;;;;;;5036109;28;20453;-56
2023/09/14 06:52:08;;;;;;;15.50;3.42;;;11.10;99.90;;;;;;5024449;28;20043;-56
2023/09/14 06:54:33;;;;;;;7.03;3.33;;;11.20;99.90;;;;;;5031143;28;20039;-56
2023/09/14 06:56:59;;;;;;;8.00;3.60;;;11.20;99.90;;;;;;5029554;28;20505;-56
2023/09/14 06:59:24;;;;;;;6.53;2.60;;;11.20;99.90;;;;;;5025708;28;20106;-56
2023/09/14 07:01:50;;;;;;;5.78;2.90;;;11.30;99.90;;;;;;5037901;28;20034;-56
2023/09/14 07:04:15;;;;;;;9.07;2.40;;;11.40;99.90;;;;;;5030731;28;20026;-56
2023/09/14 07:06:41;;;;;;;7.10;2.33;;;11.50;99.90;;;;;;5027794;28;20029;-56
2023/09/14 07:09:07;;;;;;;7.32;2.65;;;11.50;99.90;;;;;;5019557;28;20034;-56
2023/09/14 07:11:34;;;;;;;12.90;3.03;;;11.60;99.90;;;;;;5026955;28;20032;-56
2023/09/14 07:14:00;;;;;;;7.85;3.42;;;11.60;99.90;;;;;;5028619;28;20053;-56
2023/09/14 07:16:25;;;;;;;8.55;3.03;;;11.70;99.90;;;;;;5021767;28;20034;-56
2023/09/14 07:18:51;;;;;;;14.05;4.20;;;11.70;99.90;;;;;;5020240;28;20033;-56
2023/09/14 07:21:16;;;;;;;6.43;3.53;;;11.80;99.90;;;;;;5021492;28;20045;-56
2023/09/14 07:23:42;;;;;;;4.75;2.00;;;11.80;99.90;;;;;;5022114;28;20100;-56
2023/09/14 07:26:07;;;;;;;9.23;3.13;;;11.90;99.90;;;;;;5020505;28;20036;-56
2023/09/14 07:28:33;;;;;;;10.95;2.38;;;12.00;99.90;;;;;;5030554;28;20030;-56
2023/09/14 07:31:03;;;;;;;6.57;2.50;;;12.00;99.90;;;;;;5017939;28;20025;-56
2023/09/14 07:33:29;;;;;;;12.65;2.67;;;12.10;99.90;;;;;;5021495;28;20033;-56
2023/09/14 07:35:55;;;;;;;6.00;2.47;;;12.20;99.90;;;;;;5021698;28;20022;-56
2023/09/14 07:38:21;;;;;;;14.27;2.92;;;12.20;99.90;;;;;;5022326;28;20030;-55
2023/09/14 07:40:48;;;;;;;5.93;2.10;;;12.30;99.90;;;;;;5021697;28;20386;-55
2023/09/14 07:43:13;;;;;;;9.75;3.13;;;12.40;99.90;;;;;;5022180;28;20368;-56
2023/09/14 07:45:39;;;;;;;3.90;1.50;;;12.50;99.90;;;;;;5021594;28;20078;-56
2023/09/14 07:48:06;;;;;;;6.18;1.98;;;12.60;99.90;;;;;;5019499;28;20025;-57
2023/09/14 07:50:38;;;;;;;5.57;2.10;;;12.70;99.90;;;;;;5023732;28;20037;-56
2023/09/14 07:53:03;;;;;;;5.53;2.25;;;12.90;99.90;;;;;;5019299;28;20052;-57
2023/09/14 07:55:30;;;;;;;4.43;1.95;;;13.00;99.90;;;;;;5019947;28;20018;-56
2023/09/14 07:57:55;;;;;;;5.55;2.22;;;13.20;99.90;;;;;;5024459;28;20018;-56
2023/09/14 08:00:21;;;;;;;7.05;2.00;;;13.40;99.90;;;;;;5022337;28;20033;-56
2023/09/14 08:02:46;;;;;;;6.22;2.30;;;13.70;99.90;;;;;;5032292;28;20061;-56
2023/09/14 08:05:12;;;;;;;5.90;2.30;;;14.00;99.90;;;;;;5023118;28;20115;-57
2023/09/14 08:07:37;;;;;;;8.13;2.22;;;14.40;99.90;;;;;;5025542;28;20137;-57
2023/09/14 08:10:03;;;;;;;4.43;1.88;;;14.70;99.90;;;;;;5020512;28;20033;-57
2023/09/14 08:12:29;;;;;;;3.13;1.58;;;15.10;99.90;;;;;;5021007;28;20017;-56
2023/09/14 08:14:54;;;;;;;4.25;2.00;;;15.60;99.90;;;;;;5021489;28;20025;-56
2023/09/14 08:17:20;;;;;;;3.30;1.95;;;16.00;99.90;;;;;;5022537;28;20018;-57
2023/09/14 08:19:45;;;;;;;2.58;1.52;;;16.50;99.90;;;;;;5037936;28;20542;-57
2023/09/14 08:22:11;;;;;;;5.03;1.83;;;17.10;99.90;;;;;;5035617;28;20486;-57
2023/09/14 08:24:36;;;;;;;5.40;1.63;;;18.10;99.90;;;;;;5021941;28;20112;-58
2023/09/14 08:27:02;;;;;;;6.32;1.83;;;19.40;99.90;;;;;;5021411;28;20027;-56
2023/09/14 08:29:27;;;;;;;4.60;1.65;;;20.90;99.00;;;;;;5023244;28;20456;-57
2023/09/14 08:31:53;;;;;;;3.78;1.63;;;22.30;95.40;;;;;;5025031;28;20120;-57
2023/09/14 08:34:18;;;;;;;3.05;1.40;;;23.50;93.00;;;;;;5029442;28;20083;-57
2023/09/14 08:36:44;;;;;;;3.85;1.60;;;24.70;86.80;;;;;;5024572;28;20037;-57
2023/09/14 08:39:09;;;;;;;2.55;1.45;;;25.70;80.30;;;;;;5026445;28;20036;-57
2023/09/14 08:41:38;;;;;;;3.28;1.50;;;26.30;78.80;;;;;;5020673;28;20037;-58
2023/09/14 08:44:04;;;;;;;4.72;1.83;;;26.70;73.90;;;;;;5019320;28;20032;-58
2023/09/14 08:46:32;;;;;;;6.80;1.73;;;26.70;72.00;;;;;;5026170;28;20029;-58
2023/09/14 08:48:59;;;;;;;2.83;1.38;;;27.30;71.20;;;;;;5027723;28;20056;-58
2023/09/14 08:51:27;;;;;;;3.47;1.73;;;27.90;67.90;;;;;;5028571;28;20041;-58
2023/09/14 08:53:53;;;;;;;3.47;1.60;;;28.30;67.70;;;;;;5024861;28;20025;-58
2023/09/14 08:56:21;;;;;;;3.72;1.13;;;28.80;68.30;;;;;;5021913;28;20535;-59
2023/09/14 08:58:47;;;;;;;2.35;1.45;;;28.90;66.20;;;;;;5038204;28;20032;-58
2023/09/14 09:01:13;;;;;;;4.30;1.33;;;28.90;66.80;;;;;;5028808;28;20124;-58
2023/09/14 09:03:39;;;;;;;2.58;1.30;;;29.70;63.90;;;;;;5028940;28;20014;-58
2023/09/14 09:06:05;;;;;;;2.83;1.40;;;29.80;60.60;;;;;;5029122;28;20036;-58
2023/09/14 09:08:32;;;;;;;4.35;1.90;;;30.20;61.20;;;;;;5029011;28;20036;-58
2023/09/14 09:10:59;;;;;;;2.55;1.50;;;30.30;61.60;;;;;;5027249;28;20036;-59
2023/09/14 09:13:34;;;;;;;1.88;1.23;;;30.70;62.20;;;;;;5029066;28;20029;-58
2023/09/14 09:16:00;;;;;;;4.43;1.60;;;30.60;61.00;;;;;;5026818;28;20048;-58
2023/09/14 09:18:26;;;;;;;2.88;1.40;;;30.80;58.90;;;;;;5028943;28;20532;-59
2023/09/14 09:20:52;;;;;;;4.47;1.13;;;31.00;57.90;;;;;;5026897;28;20124;-59
2023/09/14 09:23:20;;;;;;;4.05;1.52;;;31.10;58.50;;;;;;5028691;28;20055;-59
2023/09/14 09:25:53;;;;;;;1.73;1.10;;;31.40;57.20;;;;;;5029015;28;20548;-59
2023/09/14 09:28:27;;;;;;;4.38;1.30;;;32.00;57.00;;;;;;5032942;28;20017;-59
2023/09/14 09:30:54;;;;;;;1.80;1.10;;;31.50;57.20;;;;;;5044842;28;20491;-59
2023/09/14 09:33:33;;;;;;;2.70;1.20;;;32.00;55.50;;;;;;5045485;28;20026;-58
2023/09/14 09:36:00;;;;;;;5.07;1.30;;;32.40;54.20;;;;;;5031922;28;20483;-59
2023/09/14 09:38:27;;;;;;;2.10;1.13;;;32.90;53.60;;;;;;5032423;28;20220;-58
2023/09/14 09:40:53;;;;;;;5.10;1.45;;;33.30;52.80;;;;;;5032217;28;20482;-58
2023/09/14 09:43:19;;;;;;;5.03;1.35;;;32.70;52.10;;;;;;5032488;28;20052;-58
2023/09/14 09:45:46;;;;;;;3.67;1.50;;;32.40;50.90;;;;;;5032761;28;20030;-58
2023/09/14 09:48:13;;;;;;;4.20;1.60;;;32.70;54.50;;;;;;5029354;28;20498;-59
2023/09/14 09:50:39;;;;;;;7.32;1.58;;;32.30;54.00;;;;;;5031920;28;20038;-58
2023/09/14 09:53:13;;;;;;;3.97;1.50;;;32.00;53.20;;;;;;5032701;28;20374;-58
2023/09/14 09:55:39;;;;;;;3.63;1.48;;;31.50;51.10;;;;;;5047537;28;20033;-58
2023/09/14 09:58:07;;;;;;;3.67;1.40;;;31.60;51.40;;;;;;5032247;28;20104;-58
2023/09/14 10:00:42;;;;;;;3.47;1.63;;;31.80;51.30;;;;;;5047229;28;20503;-58
2023/09/14 10:03:07;;;;;;;4.88;1.70;;;31.70;50.80;;;;;;5031057;28;20060;-58
2023/09/14 10:05:36;;;;;;;2.55;1.65;;;32.00;52.10;;;;;;5025145;28;20045;-59
2023/09/14 10:08:02;;;;;;;4.72;1.60;;;31.70;53.20;;;;;;5032061;28;20402;-59
2023/09/14 10:10:32;;;;;;;3.75;1.42;;;32.00;53.20;;;;;;5031337;28;20380;-58
2023/09/14 10:13:00;;;;;;;;;;;32.00;52.90;;;;;;5029061;28;20029;-58
2023/09/14 10:15:27;;;;;;;2.40;1.30;;;32.40;49.20;;;;;;5043736;28;20382;-58
2023/09/14 10:17:57;;;;;;;3.40;1.42;;;32.40;51.40;;;;;;5022261;28;20014;-59
2023/09/14 10:20:24;;;;;;;2.97;1.20;;;32.50;49.70;;;;;;5022147;28;20312;-59
2023/09/14 10:22:50;;;;;;;1.75;1.20;;;31.80;52.80;;;;;;5022322;28;20491;-58
2023/09/14 10:25:16;;;;;;;2.92;1.38;;;31.50;52.80;;;;;;5029437;28;20071;-58
2023/09/14 10:27:42;;;;;;;4.28;1.55;;;32.10;49.90;;;;;;5028361;28;20037;-58
2023/09/14 10:30:15;;;;;;;4.95;1.52;;;31.70;51.70;;;;;;5024694;28;20041;-58
2023/09/14 10:32:42;;;;;;;1.85;1.08;;;31.70;49.90;;;;;;5030356;28;20027;-58
2023/09/14 10:35:09;;;;;;;1.58;1.20;;;32.20;51.30;;;;;;5043722;28;20478;-58
2023/09/14 10:37:37;;;;;;;5.95;1.85;;;32.00;51.10;;;;;;5030847;28;20048;-58
2023/09/14 10:40:07;;;;;;;2.25;1.17;;;31.70;52.70;;;;;;5028077;28;20030;-58
2023/09/14 10:42:32;;;;;;;4.78;1.50;;;32.20;50.60;;;;;;5045101;28;20071;-58
2023/09/14 10:44:58;;;;;;;2.65;1.30;;;32.60;49.30;;;;;;5025657;28;20033;-58
2023/09/14 10:47:31;;;;;;;1.45;1.35;;;32.20;51.40;;;;;;5028832;28;20108;-58
2023/09/14 10:49:56;;;;;;;1.67;1.33;;;32.30;50.30;;;;;;5025628;28;20022;-58
2023/09/14 10:52:28;;;;;;;2.60;1.30;;;32.30;49.20;;;;;;5025703;28;20029;-58
2023/09/14 10:54:54;;;;;;;2.15;1.63;;;32.60;45.50;;;;;;5026212;28;20030;-59
2023/09/14 10:57:25;;;;;;;1.30;1.20;;;32.70;48.00;;;;;;5025016;28;20022;-58
2023/09/14 10:59:57;;;;;;;2.78;1.85;;;32.00;50.00;;;;;;5025761;28;20017;-58
2023/09/14 11:02:43;;;;;;;2.42;1.30;;;31.60;46.00;;;;;;5028889;28;20048;-58
2023/09/14 11:05:15;;;;;;;3.40;1.50;;;31.50;49.40;;;;;;5029599;28;20028;-59
2023/09/14 11:07:47;;;;;;;2.13;1.30;;;32.10;47.70;;;;;;5030212;28;20013;-58
2023/09/14 11:10:18;;;;;;;3.42;1.08;;;31.70;50.40;;;;;;5023613;28;20536;-58
2023/09/14 11:12:44;;;;;;;1.55;1.15;;;32.40;50.90;;;;;;5027354;28;20052;-58
2023/09/14 11:15:15;;;;;;;2.30;1.25;;;32.60;52.00;;;;;;5024330;28;20083;-58
2023/09/14 11:17:45;;;;;;;2.60;1.27;;;32.40;49.10;;;;;;5029438;28;20096;-58
2023/09/14 11:20:20;;;;;;;2.38;1.20;;;32.20;53.00;;;;;;5028992;28;20010;-58
2023/09/14 11:22:46;;;;;;;2.22;1.10;;;32.90;50.30;;;;;;5029787;28;20032;-58
2023/09/14 11:25:28;;;;;;;3.88;1.23;;;33.00;49.90;;;;;;5030110;28;20033;-58
2023/09/14 11:27:55;;;;;;;5.50;1.30;;;32.80;51.50;;;;;;5030914;28;20036;-58
2023/09/14 11:30:21;;;;;;;2.22;1.23;;;32.80;50.40;;;;;;5042613;28;20364;-58
2023/09/14 11:32:48;;;;;;;3.22;1.40;;;32.40;50.90;;;;;;5027612;28;20112;-58
2023/09/14 11:35:13;;;;;;;2.60;1.17;;;31.80;50.50;;;;;;5024102;28;20032;-58
2023/09/14 11:37:42;;;;;;;3.72;1.38;;;31.60;50.90;;;;;;5030221;28;20171;-59
2023/09/14 11:40:15;;;;;;;3.13;1.30;;;31.30;53.50;;;;;;5028128;28;20095;-58
2023/09/14 11:43:21;;;;;;;3.70;1.95;;;31.40;51.40;;;;;;5025519;28;20269;-58
2023/09/14 11:45:55;;;;;;;1.70;1.20;;;31.80;52.80;;;;;;5024106;28;20034;-58
2023/09/14 11:48:20;;;;;;;2.80;1.33;;;31.80;51.60;;;;;;5025125;28;20507;-58
2023/09/14 11:50:50;;;;;;;4.13;1.60;;;31.50;51.00;;;;;;5024249;28;20048;-58
2023/09/14 11:53:18;;;;;;;5.28;1.52;;;32.10;50.20;;;;;;5025561;28;20495;-58
2023/09/14 11:55:51;;;;;;;3.05;1.50;;;32.20;50.30;;;;;;5028464;28;20036;-58
2023/09/14 11:58:17;;;;;;;3.75;1.52;;;32.80;49.60;;;;;;5014838;28;20030;-58
2023/09/14 12:00:48;;;;;;;2.65;1.60;;;32.70;49.70;;;;;;5018047;28;20063;-58
2023/09/14 12:03:14;;;;;;;2.00;1.33;;;32.30;48.70;;;;;;5029659;28;20075;-58
2023/09/14 12:05:39;;;;;;;4.65;1.42;;;32.40;50.80;;;;;;5026595;28;20574;-58
2023/09/14 12:08:10;;;;;;;2.70;1.50;;;32.20;52.60;;;;;;5018412;28;20404;-58
2023/09/14 12:10:35;;;;;;;3.30;1.40;;;31.30;52.70;;;;;;5018364;28;20109;-58
2023/09/14 12:13:14;;;;;;;2.28;1.30;;;30.70;53.50;;;;;;5018668;28;20136;-58
2023/09/14 12:15:44;;;;;;;1.98;1.55;;;30.40;52.30;;;;;;5018337;28;20022;-58
2023/09/14 12:18:11;;;;;;;2.65;1.55;;;29.50;54.80;;;;;;5020445;28;20517;-58
2023/09/14 12:20:41;;;;;;;2.58;1.33;;;28.70;53.90;;;;;;5028916;28;20117;-58
2023/09/14 12:23:07;;;;;;;;;;;28.60;55.70;;;;;;5029533;28;20032;-58
2023/09/14 12:25:34;;;;;;;2.45;1.40;;;28.50;58.20;;;;;;5027651;28;19905;-58
2023/09/14 12:28:00;;;;;;;4.53;1.90;;;27.80;56.10;;;;;;5029031;28;20029;-58
2023/09/14 12:30:28;;;;;;;4.72;2.03;;;27.20;58.10;;;;;;5028489;28;20021;-58
2023/09/14 12:32:54;;;;;;;2.47;1.60;;;27.10;59.20;;;;;;5029526;28;20018;-58
2023/09/14 12:35:19;;;;;;;2.47;1.60;;;26.50;57.10;;;;;;5029342;28;20119;-57
2023/09/14 12:37:45;;;;;;;3.13;1.58;;;26.00;57.10;;;;;;5041933;28;20077;-57
2023/09/14 12:40:12;;;;;;;3.70;1.30;;;26.00;62.10;;;;;;5026295;28;20432;-57
2023/09/14 12:42:41;;;;;;;6.15;1.95;;;25.70;62.80;;;;;;5026315;28;20487;-57
2023/09/14 12:45:12;;;;;;;4.93;1.30;;;25.60;61.80;;;;;;5019757;28;20061;-57